createdAt,value
2018-03-20T00:00:15.832Z,63.67
2018-03-20T00:01:15.801Z,63.29
2018-03-20T00:02:16.148Z,63.85
2018-03-20T00:03:15.680Z,63.29
2018-03-20T00:04:15.654Z,63.10
2018-03-20T00:05:15.667Z,63.19
2018-03-20T00:06:15.639Z,63.13
2018-03-20T00:07:15.537Z,63.60
2018-03-20T00:08:15.509Z,63.32
2018-03-20T00:09:15.576Z,63.13
2018-03-20T00:10:15.450Z,63.04
2018-03-20T00:11:15.425Z,62.56
2018-03-20T00:12:15.372Z,62.18
2018-03-20T00:13:15.356Z,62.28
2018-03-20T00:14:15.302Z,62.28
2018-03-20T00:15:15.282Z,61.99
2018-03-20T00:16:15.280Z,61.90
2018-03-20T00:17:15.206Z,61.90
2018-03-20T00:18:15.175Z,62.09
2018-03-20T00:19:15.135Z,62.06
2018-03-20T00:20:15.155Z,63.10
2018-03-20T00:21:15.063Z,63.19
2018-03-20T00:22:15.035Z,63.10
2018-03-20T00:23:15.020Z,63.19
2018-03-20T00:24:14.961Z,63.85
2018-03-20T00:25:14.922Z,63.48
2018-03-20T00:26:14.901Z,63.85
2018-03-20T00:27:14.889Z,63.48
2018-03-20T00:28:14.828Z,63.70
2018-03-20T00:29:14.821Z,63.19
2018-03-20T00:30:14.797Z,62.81
2018-03-20T00:31:14.743Z,63.85
2018-03-20T00:32:14.682Z,63.57
2018-03-20T00:33:14.658Z,63.76
2018-03-20T00:34:14.621Z,64.23
2018-03-20T00:35:14.579Z,64.14
2018-03-20T00:36:14.561Z,63.89
2018-03-20T00:37:14.545Z,63.76
2018-03-20T00:38:14.492Z,64.04
2018-03-20T00:39:14.468Z,64.70
2018-03-20T00:40:14.479Z,64.23
2018-03-20T00:41:14.384Z,64.36
2018-03-20T00:42:14.365Z,63.76
2018-03-20T00:43:14.326Z,64.26
2018-03-20T00:44:14.309Z,63.89
2018-03-20T00:45:14.277Z,63.98
2018-03-20T00:46:14.247Z,63.60
2018-03-20T00:47:14.179Z,64.04
2018-03-20T00:48:14.177Z,64.17
2018-03-20T00:49:14.120Z,63.67
2018-03-20T00:50:14.106Z,63.23
2018-03-20T00:51:14.069Z,63.85
2018-03-20T00:52:14.009Z,63.48
2018-03-20T00:53:14.020Z,63.85
2018-03-20T00:54:13.990Z,63.67
2018-03-20T00:55:13.921Z,63.67
2018-03-20T00:56:13.864Z,64.14
2018-03-20T00:57:13.879Z,63.85
2018-03-20T00:58:13.803Z,63.76
2018-03-20T00:59:13.782Z,64.04
2018-03-20T01:00:13.747Z,64.14
2018-03-20T01:01:13.699Z,64.23
2018-03-20T01:02:13.710Z,64.14
2018-03-20T01:03:13.667Z,64.23
2018-03-20T01:04:13.604Z,64.23
2018-03-20T01:05:13.583Z,64.42
2018-03-20T01:06:13.533Z,64.89
2018-03-20T01:07:13.508Z,65.36
2018-03-20T01:08:13.501Z,65.55
2018-03-20T01:09:13.524Z,65.02
2018-03-20T01:10:13.437Z,64.36
2018-03-20T01:11:13.361Z,64.04
2018-03-20T01:12:13.369Z,63.67
2018-03-20T01:13:13.337Z,64.14
2018-03-20T01:14:13.274Z,64.04
2018-03-20T01:15:13.279Z,64.23
2018-03-20T01:16:13.200Z,64.70
2018-03-20T01:17:13.159Z,64.98
2018-03-20T01:18:13.118Z,65.27
2018-03-20T01:19:13.101Z,64.98
2018-03-20T01:20:13.057Z,65.46
2018-03-20T01:21:13.029Z,65.65
2018-03-20T01:22:12.988Z,65.87
2018-03-20T01:23:13.008Z,65.87
2018-03-20T01:24:12.922Z,66.16
2018-03-20T01:25:12.947Z,66.25
2018-03-20T01:26:12.844Z,66.06
2018-03-20T01:27:12.835Z,66.63
2018-03-20T01:28:12.824Z,66.53
2018-03-20T01:29:12.860Z,66.72
2018-03-20T01:30:12.757Z,66.06
2018-03-20T01:31:12.719Z,66.16
2018-03-20T01:32:12.670Z,65.30
2018-03-20T01:33:12.733Z,64.73
2018-03-20T01:34:12.602Z,65.02
2018-03-20T01:35:12.592Z,64.64
2018-03-20T01:36:12.585Z,64.17
2018-03-20T01:37:12.497Z,64.17
2018-03-20T01:38:12.479Z,64.54
2018-03-20T01:39:12.438Z,64.54
2018-03-20T01:40:12.413Z,64.07
2018-03-20T01:41:12.370Z,64.36
2018-03-20T01:42:12.353Z,64.11
2018-03-20T01:43:12.351Z,64.07
2018-03-20T01:44:12.257Z,64.26
2018-03-20T01:45:12.253Z,64.58
2018-03-20T01:46:12.180Z,64.86
2018-03-20T01:47:12.155Z,65.11
2018-03-20T01:48:12.168Z,65.68
2018-03-20T01:49:12.070Z,65.59
2018-03-20T01:50:12.073Z,66.35
2018-03-20T01:51:12.010Z,66.63
2018-03-20T01:52:12.016Z,67.38
2018-03-20T01:53:11.977Z,68.61
2018-03-20T01:54:11.904Z,68.99
2018-03-20T01:55:11.919Z,69.18
2018-03-20T01:56:11.847Z,69.37
2018-03-20T01:57:11.818Z,69.56
2018-03-20T01:58:11.797Z,69.93
2018-03-20T01:59:11.750Z,69.65
2018-03-20T02:00:11.748Z,69.46
2018-03-20T02:01:11.730Z,69.27
2018-03-20T02:02:11.657Z,69.46
2018-03-20T02:03:11.667Z,68.90
2018-03-20T02:04:11.584Z,68.52
2018-03-20T02:05:11.563Z,68.33
2018-03-20T02:06:11.539Z,68.61
2018-03-20T02:07:11.497Z,68.52
2018-03-20T02:08:11.455Z,68.61
2018-03-20T02:09:11.415Z,69.18
2018-03-20T02:10:11.502Z,68.80
2018-03-20T02:11:11.439Z,69.56
2018-03-20T02:12:11.326Z,69.93
2018-03-20T02:13:11.314Z,69.93
2018-03-20T02:14:11.263Z,69.56
2018-03-20T02:15:11.240Z,70.03
2018-03-20T02:16:11.241Z,70.21
2018-03-20T02:17:11.154Z,70.63
2018-03-20T02:18:11.135Z,70.92
2018-03-20T02:19:11.108Z,70.73
2018-03-20T02:20:11.048Z,70.54
2018-03-20T02:21:11.040Z,71.20
2018-03-20T02:22:11.006Z,71.20
2018-03-20T02:23:10.952Z,71.48
2018-03-20T02:24:10.904Z,72.14
2018-03-20T02:25:10.898Z,71.77
2018-03-20T02:26:10.824Z,72.71
2018-03-20T02:27:10.849Z,72.52
2018-03-20T02:28:10.763Z,72.80
2018-03-20T02:29:10.745Z,73.09
2018-03-20T02:30:10.736Z,72.99
2018-03-20T02:31:10.685Z,73.47
2018-03-20T02:32:10.629Z,73.66
2018-03-20T02:33:10.616Z,73.47
2018-03-20T02:34:10.626Z,73.75
2018-03-20T02:35:10.553Z,73.94
2018-03-20T02:36:10.901Z,74.13
2018-03-20T02:37:10.465Z,74.32
2018-03-20T02:38:10.446Z,74.22
2018-03-20T02:39:10.428Z,74.60
2018-03-20T02:40:10.383Z,74.88
2018-03-20T02:41:10.349Z,74.60
2018-03-20T02:42:10.312Z,75.17
2018-03-20T02:43:10.263Z,75.36
2018-03-20T02:44:10.219Z,75.64
2018-03-20T02:45:10.244Z,75.93
2018-03-20T02:46:10.164Z,76.21
2018-03-20T02:47:10.152Z,76.50
2018-03-20T02:48:10.125Z,77.15
2018-03-20T02:49:10.068Z,77.91
2018-03-20T02:50:10.056Z,78.95
2018-03-20T02:51:10.036Z,79.99
2018-03-20T02:52:10.008Z,80.94
2018-03-20T02:53:09.962Z,80.94
2018-03-20T02:54:09.894Z,81.32
2018-03-20T02:55:09.859Z,81.88
2018-03-20T02:56:09.848Z,82.54
2018-03-20T02:57:09.808Z,82.73
2018-03-20T02:58:09.788Z,83.68
2018-03-20T02:59:09.731Z,84.06
2018-03-20T03:00:09.696Z,84.63
2018-03-20T03:01:09.660Z,85.00
2018-03-20T03:02:09.612Z,85.28
2018-03-20T03:03:09.602Z,86.14
2018-03-20T03:04:09.574Z,86.42
2018-03-20T03:05:09.520Z,87.74
2018-03-20T03:06:09.536Z,88.41
2018-03-20T03:07:09.473Z,89.54
2018-03-20T03:08:09.436Z,89.54
2018-03-20T03:09:09.430Z,90.68
2018-03-20T03:10:09.448Z,91.72
2018-03-20T03:11:09.328Z,92.66
2018-03-20T03:12:09.298Z,92.57
2018-03-20T03:13:09.268Z,93.23
2018-03-20T03:14:09.213Z,93.04
2018-03-20T03:15:09.182Z,93.51
2018-03-20T03:16:09.196Z,93.51
2018-03-20T03:17:09.119Z,94.46
2018-03-20T03:18:09.103Z,94.89
2018-03-20T03:19:09.049Z,96.11
2018-03-20T03:20:09.018Z,95.54
2018-03-20T03:21:09.027Z,96.40
2018-03-20T03:22:09.013Z,96.35
2018-03-20T03:23:08.981Z,96.73
2018-03-20T03:24:08.921Z,96.73
2018-03-20T03:25:08.872Z,97.11
2018-03-20T03:26:08.854Z,97.01
2018-03-20T03:27:08.798Z,97.30
2018-03-20T03:28:08.817Z,97.20
2018-03-20T03:29:08.725Z,97.30
2018-03-20T03:30:08.682Z,97.20
2018-03-20T03:31:08.673Z,97.86
2018-03-20T03:32:08.638Z,97.96
2018-03-20T03:33:08.596Z,97.49
2018-03-20T03:34:08.559Z,97.96
2018-03-20T03:35:08.506Z,98.05
2018-03-20T03:36:08.483Z,97.86
2018-03-20T03:37:08.494Z,98.33
2018-03-20T03:38:08.413Z,97.77
2018-03-20T03:39:08.389Z,97.86
2018-03-20T03:40:08.356Z,97.96
2018-03-20T03:41:08.312Z,98.52
2018-03-20T03:42:08.348Z,97.86
2018-03-20T03:43:08.272Z,98.14
2018-03-20T03:44:08.254Z,98.14
2018-03-20T03:45:08.169Z,97.86
2018-03-20T03:46:08.149Z,98.14
2018-03-20T03:47:08.133Z,98.62
2018-03-20T03:48:08.075Z,98.52
2018-03-20T03:49:08.041Z,98.52
2018-03-20T03:50:08.024Z,99.09
2018-03-20T03:51:07.996Z,98.90
2018-03-20T03:52:07.956Z,99.09
2018-03-20T03:53:07.984Z,98.62
2018-03-20T03:54:07.867Z,98.90
2018-03-20T03:55:07.887Z,98.71
2018-03-20T03:56:07.844Z,98.33
2018-03-20T03:57:07.846Z,98.52
2018-03-20T03:58:07.732Z,98.24
2018-03-20T03:59:07.751Z,99.19
2018-03-20T04:00:07.667Z,98.71
2018-03-20T04:01:07.680Z,99.09
2018-03-20T04:02:07.639Z,99.09
2018-03-20T04:03:07.575Z,99.09
2018-03-20T04:04:07.568Z,99.09
2018-03-20T04:05:07.506Z,99.19
2018-03-20T04:06:07.500Z,99.19
2018-03-20T04:07:07.431Z,99.28
2018-03-20T04:08:07.408Z,99.99
2018-03-20T04:09:07.397Z,99.85
2018-03-20T04:10:07.423Z,99.85
2018-03-20T04:11:07.299Z,99.76
2018-03-20T04:12:07.304Z,99.66
2018-03-20T04:13:07.253Z,99.99
2018-03-20T04:14:07.217Z,99.99
2018-03-20T04:15:07.220Z,99.47
2018-03-20T04:16:07.152Z,99.09
2018-03-20T04:17:07.102Z,99.95
2018-03-20T04:18:07.199Z,99.76
2018-03-20T04:19:07.083Z,99.99
2018-03-20T04:20:07.005Z,99.76
2018-03-20T04:21:06.978Z,99.99
2018-03-20T04:22:06.938Z,99.99
2018-03-20T04:23:06.916Z,99.99
2018-03-20T04:24:06.911Z,99.99
2018-03-20T04:25:06.856Z,99.99
2018-03-20T04:26:06.840Z,99.99
2018-03-20T04:27:06.800Z,99.99
2018-03-20T04:28:06.740Z,99.99
2018-03-20T04:29:06.766Z,99.99
2018-03-20T04:30:06.670Z,99.99
2018-03-20T04:31:06.646Z,99.99
2018-03-20T04:32:06.650Z,99.99
2018-03-20T04:33:06.565Z,99.99
2018-03-20T04:34:06.553Z,99.99
2018-03-20T04:35:06.508Z,99.99
2018-03-20T04:36:06.493Z,99.99
2018-03-20T04:37:06.481Z,99.99
2018-03-20T04:38:06.419Z,99.99
2018-03-20T04:39:06.404Z,99.99
2018-03-20T04:40:06.343Z,99.99
2018-03-20T04:41:06.328Z,99.99
2018-03-20T04:42:06.313Z,99.99
2018-03-20T04:43:06.256Z,99.99
2018-03-20T04:44:06.240Z,99.99
2018-03-20T04:45:06.218Z,99.99
2018-03-20T04:46:06.154Z,99.99
2018-03-20T04:47:06.110Z,99.99
2018-03-20T04:48:06.099Z,99.99
2018-03-20T04:49:06.053Z,99.99
2018-03-20T04:50:05.996Z,99.99
2018-03-20T04:51:05.988Z,99.99
2018-03-20T04:52:05.985Z,99.99
2018-03-20T04:53:05.906Z,99.99
2018-03-20T04:54:05.892Z,99.99
2018-03-20T04:55:05.885Z,99.99
2018-03-20T04:56:05.844Z,99.99
2018-03-20T04:57:05.796Z,99.99
2018-03-20T04:58:05.745Z,99.99
2018-03-20T04:59:05.721Z,99.99
2018-03-20T05:00:05.729Z,99.99
2018-03-20T05:01:05.652Z,99.99
2018-03-20T05:02:05.636Z,99.99
2018-03-20T05:03:05.582Z,99.99
2018-03-20T05:04:05.549Z,99.99
2018-03-20T05:05:05.505Z,99.99
2018-03-20T05:06:05.478Z,99.99
2018-03-20T05:07:05.467Z,99.99
2018-03-20T05:08:05.418Z,99.99
2018-03-20T05:09:05.406Z,99.99
2018-03-20T05:10:05.487Z,99.99
2018-03-20T05:11:05.329Z,99.99
2018-03-20T05:12:05.315Z,99.99
2018-03-20T05:13:05.281Z,99.99
2018-03-20T05:14:05.245Z,99.99
2018-03-20T05:15:05.218Z,99.99
2018-03-20T05:16:05.251Z,99.99
2018-03-20T05:17:05.200Z,99.99
2018-03-20T05:18:05.094Z,99.99
2018-03-20T05:19:05.072Z,99.99
2018-03-20T05:20:05.053Z,99.99
2018-03-20T05:21:05.073Z,99.99
2018-03-20T05:22:05.047Z,99.99
2018-03-20T05:23:04.984Z,99.99
2018-03-20T05:24:04.965Z,99.99
2018-03-20T05:25:04.932Z,99.99
2018-03-20T05:26:04.813Z,99.99
2018-03-20T05:27:04.792Z,99.99
2018-03-20T05:28:04.762Z,99.99
2018-03-20T05:29:04.718Z,99.99
2018-03-20T05:30:04.687Z,99.99
2018-03-20T05:31:04.650Z,99.99
2018-03-20T05:32:04.624Z,99.99
2018-03-20T05:33:04.586Z,99.99
2018-03-20T05:34:04.566Z,99.99
2018-03-20T05:35:04.524Z,99.99
2018-03-20T05:36:04.513Z,99.99
2018-03-20T05:37:04.489Z,99.99
2018-03-20T05:38:04.449Z,99.99
2018-03-20T05:39:04.450Z,99.99
2018-03-20T05:40:04.395Z,99.99
2018-03-20T05:41:04.348Z,99.99
2018-03-20T05:42:04.305Z,99.99
2018-03-20T05:43:04.269Z,99.99
2018-03-20T05:44:04.267Z,99.99
2018-03-20T05:45:04.256Z,99.99
2018-03-20T05:46:04.289Z,99.99
2018-03-20T05:47:04.171Z,99.99
2018-03-20T05:48:04.103Z,99.99
2018-03-20T05:49:04.062Z,99.99
2018-03-20T05:50:04.043Z,99.99
2018-03-20T05:51:04.011Z,99.99
2018-03-20T05:52:03.995Z,99.99
2018-03-20T05:53:03.936Z,99.99
2018-03-20T05:54:03.924Z,99.99
2018-03-20T05:55:03.886Z,99.99
2018-03-20T05:56:03.842Z,99.99
2018-03-20T05:57:03.828Z,99.99
2018-03-20T05:58:05.296Z,99.99
2018-03-20T05:59:05.212Z,99.99
2018-03-20T06:00:03.705Z,99.99
2018-03-20T06:01:03.677Z,99.99
2018-03-20T06:02:03.651Z,99.99
2018-03-20T06:03:03.621Z,99.99
2018-03-20T06:04:03.603Z,99.99
2018-03-20T06:05:03.553Z,99.99
2018-03-20T06:06:03.538Z,99.99
2018-03-20T06:07:03.495Z,99.99
2018-03-20T06:08:03.476Z,99.99
2018-03-20T06:09:03.433Z,99.99
2018-03-20T06:10:03.531Z,99.99
2018-03-20T06:11:03.359Z,99.99
2018-03-20T06:12:03.325Z,99.99
2018-03-20T06:13:03.302Z,99.99
2018-03-20T06:14:03.253Z,99.99
2018-03-20T06:15:03.238Z,99.99
2018-03-20T06:16:03.187Z,99.99
2018-03-20T06:17:03.170Z,99.99
2018-03-20T06:18:03.153Z,99.99
2018-03-20T06:19:03.093Z,99.99
2018-03-20T06:20:03.108Z,99.99
2018-03-20T06:21:03.032Z,99.99
2018-03-20T06:22:02.997Z,99.99
2018-03-20T06:23:02.991Z,99.99
2018-03-20T06:24:02.940Z,99.99
2018-03-20T06:25:02.924Z,99.99
2018-03-20T06:26:02.886Z,99.99
2018-03-20T06:27:02.837Z,99.99
2018-03-20T06:28:02.820Z,99.99
2018-03-20T06:29:02.769Z,99.99
2018-03-20T06:30:02.743Z,99.99
2018-03-20T06:31:02.729Z,99.99
2018-03-20T06:32:02.678Z,99.99
2018-03-20T06:33:02.662Z,99.99
2018-03-20T06:34:02.627Z,99.99
2018-03-20T06:35:02.611Z,99.99
2018-03-20T06:36:02.542Z,99.99
2018-03-20T06:37:02.830Z,99.99
2018-03-20T06:38:02.556Z,99.99
2018-03-20T06:39:02.591Z,99.99
2018-03-20T06:40:02.422Z,99.99
2018-03-20T06:41:02.394Z,99.99
2018-03-20T06:42:02.367Z,99.99
2018-03-20T06:43:02.331Z,99.99
2018-03-20T06:44:02.329Z,99.99
2018-03-20T06:45:02.253Z,99.99
2018-03-20T06:46:02.235Z,99.95
2018-03-20T06:47:02.217Z,99.99
2018-03-20T06:48:02.179Z,99.99
2018-03-20T06:49:02.273Z,99.99
2018-03-20T06:50:02.109Z,99.99
2018-03-20T06:51:02.084Z,99.99
2018-03-20T06:52:02.063Z,99.85
2018-03-20T06:53:01.999Z,99.85
2018-03-20T06:54:01.977Z,99.99
2018-03-20T06:55:01.940Z,99.76
2018-03-20T06:56:01.963Z,99.48
2018-03-20T06:57:01.879Z,99.57
2018-03-20T06:58:01.832Z,98.82
2018-03-20T06:59:01.823Z,99.10
2018-03-20T07:00:01.781Z,98.63
2018-03-20T07:01:01.740Z,98.44
2018-03-20T07:02:01.713Z,97.87
2018-03-20T07:03:01.755Z,97.87
2018-03-20T07:04:01.642Z,97.49
2018-03-20T07:05:01.615Z,97.68
2018-03-20T07:06:01.658Z,97.87
2018-03-20T07:07:01.560Z,97.68
2018-03-20T07:08:01.520Z,97.96
2018-03-20T07:09:01.479Z,97.11
2018-03-20T07:10:01.558Z,97.30
2018-03-20T07:11:01.441Z,97.30
2018-03-20T07:12:01.403Z,96.92
2018-03-20T07:13:01.351Z,97.11
2018-03-20T07:14:01.333Z,97.20
2018-03-20T07:15:01.329Z,97.30
2018-03-20T07:16:01.278Z,97.11
2018-03-20T07:17:01.302Z,97.02
2018-03-20T07:18:01.189Z,96.54
2018-03-20T07:19:01.169Z,96.83
2018-03-20T07:20:01.122Z,96.54
2018-03-20T07:21:01.103Z,96.45
2018-03-20T07:22:01.070Z,96.45
2018-03-20T07:23:01.044Z,96.07
2018-03-20T07:24:01.007Z,95.59
2018-03-20T07:25:00.977Z,95.59
2018-03-20T07:26:00.986Z,95.59
2018-03-20T07:27:00.924Z,95.40
2018-03-20T07:28:00.937Z,95.31
2018-03-20T07:29:00.911Z,95.50
2018-03-20T07:30:00.812Z,95.31
2018-03-20T07:31:00.808Z,94.56
2018-03-20T07:32:00.765Z,94.56
2018-03-20T07:33:00.704Z,94.93
2018-03-20T07:34:00.823Z,94.65
2018-03-20T07:35:00.650Z,94.46
2018-03-20T07:36:00.645Z,93.99
2018-03-20T07:37:00.684Z,93.61
2018-03-20T07:38:00.554Z,93.89
2018-03-20T07:39:00.540Z,93.61
2018-03-20T07:40:00.493Z,93.46
2018-03-20T07:41:00.471Z,93.08
2018-03-20T07:42:00.428Z,93.18
2018-03-20T07:43:00.391Z,92.90
2018-03-20T07:44:00.352Z,92.99
2018-03-20T07:45:00.365Z,92.14
2018-03-20T07:46:00.333Z,91.62
2018-03-20T07:47:00.259Z,91.57
2018-03-20T07:48:00.234Z,91.00
2018-03-20T07:49:00.202Z,90.34
2018-03-20T07:50:00.178Z,90.44
2018-03-20T07:51:00.189Z,90.15
2018-03-20T07:52:00.130Z,89.82
2018-03-20T07:53:00.079Z,89.44
2018-03-20T07:54:00.036Z,89.96
2018-03-20T07:55:00.030Z,89.82
2018-03-20T07:55:59.990Z,88.73
2018-03-20T07:56:59.937Z,88.45
2018-03-20T07:57:59.953Z,88.82
2018-03-20T07:58:59.886Z,88.45
2018-03-20T07:59:59.857Z,88.40
2018-03-20T08:00:59.831Z,88.82
2018-03-20T08:01:59.860Z,88.21
2018-03-20T08:02:59.752Z,88.49
2018-03-20T08:03:59.740Z,88.26
2018-03-20T08:04:59.682Z,87.98
2018-03-20T08:05:59.673Z,87.88
2018-03-20T08:06:59.618Z,87.98
2018-03-20T08:07:59.589Z,87.98
2018-03-20T08:08:59.565Z,87.88
2018-03-20T08:09:59.525Z,87.31
2018-03-20T08:10:59.490Z,87.21
2018-03-20T08:11:59.462Z,86.83
2018-03-20T08:12:59.441Z,86.46
2018-03-20T08:13:59.392Z,86.93
2018-03-20T08:14:59.370Z,86.93
2018-03-20T08:15:59.331Z,87.21
2018-03-20T08:16:59.317Z,87.59
2018-03-20T08:17:59.270Z,86.74
2018-03-20T08:18:59.232Z,86.74
2018-03-20T08:19:59.209Z,86.83
2018-03-20T08:20:59.169Z,86.93
2018-03-20T08:21:59.142Z,86.74
2018-03-20T08:22:59.156Z,86.83
2018-03-20T08:23:59.083Z,85.99
2018-03-20T08:24:59.067Z,85.80
2018-03-20T08:25:59.017Z,85.99
2018-03-20T08:26:58.984Z,86.46
2018-03-20T08:27:58.951Z,85.99
2018-03-20T08:28:58.937Z,86.08
2018-03-20T08:29:58.893Z,85.89
2018-03-20T08:30:58.849Z,85.70
2018-03-20T08:31:58.825Z,85.23
2018-03-20T08:32:58.803Z,84.85
2018-03-20T08:33:58.760Z,84.85
2018-03-20T08:34:58.725Z,84.19
2018-03-20T08:35:58.708Z,84.94
2018-03-20T08:36:58.661Z,84.47
2018-03-20T08:37:58.635Z,84.56
2018-03-20T08:38:58.599Z,84.00
2018-03-20T08:39:58.569Z,83.90
2018-03-20T08:40:58.545Z,83.62
2018-03-20T08:41:58.539Z,83.05
2018-03-20T08:42:58.474Z,83.62
2018-03-20T08:43:58.447Z,83.05
2018-03-20T08:44:58.414Z,82.57
2018-03-20T08:45:58.389Z,82.76
2018-03-20T08:46:58.342Z,83.05
2018-03-20T08:47:58.312Z,83.43
2018-03-20T08:48:58.298Z,82.67
2018-03-20T08:49:58.267Z,82.86
2018-03-20T08:50:58.218Z,82.29
2018-03-20T08:51:58.185Z,82.20
2018-03-20T08:52:58.152Z,82.20
2018-03-20T08:53:58.137Z,82.20
2018-03-20T08:54:58.090Z,81.06
2018-03-20T08:55:58.059Z,81.53
2018-03-20T08:56:58.031Z,81.53
2018-03-20T08:57:58.006Z,82.29
2018-03-20T08:58:57.979Z,81.53
2018-03-20T08:59:57.935Z,81.15
2018-03-20T09:00:57.901Z,81.29
2018-03-20T09:01:57.875Z,81.34
2018-03-20T09:02:58.997Z,81.15
2018-03-20T09:03:57.819Z,81.38
2018-03-20T09:04:57.781Z,80.44
2018-03-20T09:05:57.751Z,80.53
2018-03-20T09:06:57.823Z,80.15
2018-03-20T09:07:57.700Z,79.87
2018-03-20T09:08:57.648Z,78.83
2018-03-20T09:09:57.629Z,79.49
2018-03-20T09:10:57.584Z,79.39
2018-03-20T09:11:57.552Z,79.30
2018-03-20T09:12:57.529Z,79.39
2018-03-20T09:13:57.494Z,79.30
2018-03-20T09:14:57.466Z,79.11
2018-03-20T09:15:57.448Z,78.64
2018-03-20T09:16:57.389Z,77.69
2018-03-20T09:17:57.431Z,78.45
2018-03-20T09:18:57.336Z,78.07
2018-03-20T09:19:57.344Z,77.69
2018-03-20T09:20:57.275Z,77.59
2018-03-20T09:21:57.241Z,78.07
2018-03-20T09:22:57.220Z,77.97
2018-03-20T09:23:57.177Z,77.69
2018-03-20T09:24:57.136Z,77.22
2018-03-20T09:25:57.126Z,76.93
2018-03-20T09:26:57.086Z,76.03
2018-03-20T09:27:57.047Z,75.45
2018-03-20T09:28:57.047Z,74.60
2018-03-20T09:29:57.023Z,73.46
2018-03-20T09:30:56.950Z,74.13
2018-03-20T09:31:56.941Z,74.37
2018-03-20T09:32:56.886Z,74.56
2018-03-20T09:33:56.879Z,73.99
2018-03-20T09:34:56.869Z,74.03
2018-03-20T09:35:56.797Z,73.56
2018-03-20T09:36:56.766Z,72.71
2018-03-20T09:37:56.750Z,73.37
2018-03-20T09:38:56.703Z,72.71
2018-03-20T09:39:56.679Z,72.61
2018-03-20T09:40:56.640Z,72.80
2018-03-20T09:41:56.630Z,72.14
2018-03-20T09:42:56.574Z,72.61
2018-03-20T09:43:56.551Z,72.61
2018-03-20T09:44:56.529Z,71.95
2018-03-20T09:45:56.492Z,70.62
2018-03-20T09:46:56.457Z,70.15
2018-03-20T09:47:56.425Z,70.34
2018-03-20T09:48:56.398Z,70.24
2018-03-20T09:49:56.372Z,70.15
2018-03-20T09:50:56.369Z,70.34
2018-03-20T09:51:56.314Z,69.96
2018-03-20T09:52:58.060Z,69.48
2018-03-20T09:53:56.245Z,68.06
2018-03-20T09:54:56.258Z,67.30
2018-03-20T09:55:56.175Z,67.87
2018-03-20T09:56:56.159Z,66.83
2018-03-20T09:57:56.119Z,65.82
2018-03-20T09:58:56.098Z,64.87
2018-03-20T09:59:56.057Z,64.08
2018-03-20T10:00:56.034Z,63.89
2018-03-20T10:01:56.000Z,64.59
2018-03-20T10:02:55.973Z,64.74
2018-03-20T10:04:06.321Z,63.98
2018-03-20T10:04:55.919Z,64.55
2018-03-20T10:05:55.877Z,64.84
2018-03-20T10:06:55.833Z,65.06
2018-03-20T10:07:55.813Z,65.25
2018-03-20T10:08:55.790Z,64.59
2018-03-20T10:09:55.744Z,64.49
2018-03-20T10:10:55.713Z,63.54
2018-03-20T10:11:55.700Z,62.59
2018-03-20T10:12:55.657Z,63.07
2018-03-20T10:13:55.630Z,61.93
2018-03-20T10:14:55.596Z,61.46
2018-03-20T10:15:55.581Z,60.70
2018-03-20T10:16:55.538Z,60.70
2018-03-20T10:17:55.503Z,60.79
2018-03-20T10:18:55.480Z,60.79
2018-03-20T10:19:55.447Z,60.89
2018-03-20T10:20:55.414Z,60.89
2018-03-20T10:21:55.388Z,60.22
2018-03-20T10:22:55.348Z,60.60
2018-03-20T10:23:55.326Z,60.22
2018-03-20T10:24:55.306Z,59.94
2018-03-20T10:25:55.262Z,59.56
2018-03-20T10:26:55.230Z,58.61
2018-03-20T10:27:55.202Z,58.33
2018-03-20T10:28:55.162Z,57.47
2018-03-20T10:29:55.142Z,56.90
2018-03-20T10:30:55.108Z,56.90
2018-03-20T10:31:55.072Z,57.57
2018-03-20T10:32:55.051Z,57.28
2018-03-20T10:33:55.018Z,56.90
2018-03-20T10:34:54.994Z,56.62
2018-03-20T10:35:55.009Z,56.99
2018-03-20T10:36:54.933Z,56.99
2018-03-20T10:37:54.910Z,56.27
2018-03-20T10:38:54.863Z,56.65
2018-03-20T10:39:54.838Z,56.08
2018-03-20T10:40:54.815Z,56.36
2018-03-20T10:41:54.778Z,55.98
2018-03-20T10:42:54.740Z,55.13
2018-03-20T10:43:54.721Z,54.66
2018-03-20T10:44:54.679Z,54.46
2018-03-20T10:45:54.658Z,53.99
2018-03-20T10:46:54.638Z,53.89
2018-03-20T10:47:54.599Z,53.80
2018-03-20T10:48:54.576Z,53.99
2018-03-20T10:49:54.537Z,53.99
2018-03-20T10:50:54.497Z,54.08
2018-03-20T10:51:54.481Z,53.80
2018-03-20T10:52:54.440Z,53.89
2018-03-20T10:53:54.422Z,53.89
2018-03-20T10:54:54.408Z,53.99
2018-03-20T10:55:54.353Z,53.42
2018-03-20T10:56:54.359Z,52.95
2018-03-20T10:57:54.294Z,52.85
2018-03-20T10:58:54.260Z,52.95
2018-03-20T10:59:54.230Z,52.95
2018-03-20T11:00:54.208Z,52.56
2018-03-20T11:01:54.164Z,52.47
2018-03-20T11:02:54.159Z,51.05
2018-03-20T11:03:54.119Z,50.76
2018-03-20T11:04:54.094Z,50.67
2018-03-20T11:05:54.050Z,50.95
2018-03-20T11:06:54.033Z,51.33
2018-03-20T11:07:53.995Z,50.12
2018-03-20T11:08:53.970Z,49.93
2018-03-20T11:09:53.926Z,50.03
2018-03-20T11:10:53.901Z,49.55
2018-03-20T11:11:53.867Z,49.46
2018-03-20T11:12:53.849Z,49.37
2018-03-20T11:13:53.819Z,49.18
2018-03-20T11:14:53.778Z,49.37
2018-03-20T11:15:53.756Z,49.46
2018-03-20T11:16:53.721Z,48.99
2018-03-20T11:17:53.699Z,48.89
2018-03-20T11:18:53.668Z,49.37
2018-03-20T11:19:53.639Z,49.65
2018-03-20T11:20:53.599Z,49.74
2018-03-20T11:21:53.576Z,50.12
2018-03-20T11:22:53.548Z,50.22
2018-03-20T11:23:53.521Z,49.93
2018-03-20T11:24:53.508Z,50.31
2018-03-20T11:25:53.471Z,49.27
2018-03-20T11:26:53.430Z,48.99
2018-03-20T11:27:53.397Z,48.61
2018-03-20T11:28:53.384Z,47.94
2018-03-20T11:29:53.350Z,47.75
2018-03-20T11:30:53.312Z,47.75
2018-03-20T11:31:53.316Z,47.94
2018-03-20T11:32:53.252Z,47.18
2018-03-20T11:33:53.223Z,46.61
2018-03-20T11:34:53.216Z,46.99
2018-03-20T11:35:53.200Z,47.47
2018-03-20T11:36:53.133Z,46.90
2018-03-20T11:37:53.105Z,46.70
2018-03-20T11:38:53.070Z,46.51
2018-03-20T11:39:53.058Z,46.51
2018-03-20T11:40:53.017Z,46.14
2018-03-20T11:41:52.979Z,45.47
2018-03-20T11:42:52.973Z,45.47
2018-03-20T11:43:52.953Z,45.57
2018-03-20T11:44:52.896Z,45.28
2018-03-20T11:45:52.875Z,45.19
2018-03-20T11:46:52.845Z,44.05
2018-03-20T11:47:52.809Z,43.10
2018-03-20T11:48:52.779Z,42.91
2018-03-20T11:49:52.746Z,43.29
2018-03-20T11:50:52.728Z,43.57
2018-03-20T11:51:52.765Z,42.63
2018-03-20T11:52:52.678Z,42.72
2018-03-20T11:53:52.643Z,42.24
2018-03-20T11:54:52.644Z,42.05
2018-03-20T11:55:52.580Z,42.34
2018-03-20T11:56:52.565Z,42.24
2018-03-20T11:57:52.516Z,42.63
2018-03-20T11:58:52.502Z,42.24
2018-03-20T11:59:52.479Z,42.46
2018-03-20T12:00:52.440Z,41.69
2018-03-20T12:01:52.398Z,41.58
2018-03-20T12:02:52.387Z,41.30
2018-03-20T12:03:52.345Z,41.31
2018-03-20T12:04:52.355Z,42.08
2018-03-20T12:05:52.294Z,42.27
2018-03-20T12:06:52.299Z,42.46
2018-03-20T12:07:52.219Z,42.36
2018-03-20T12:08:52.195Z,42.74
2018-03-20T12:09:52.161Z,42.36
2018-03-20T12:10:52.139Z,42.55
2018-03-20T12:11:52.097Z,42.74
2018-03-20T12:12:52.078Z,42.93
2018-03-20T12:13:52.068Z,43.12
2018-03-20T12:14:52.013Z,42.83
2018-03-20T12:15:51.984Z,43.60
2018-03-20T12:16:51.980Z,42.17
2018-03-20T12:17:51.940Z,42.08
2018-03-20T12:18:51.899Z,42.46
2018-03-20T12:19:51.888Z,42.46
2018-03-20T12:20:51.852Z,42.74
2018-03-20T12:21:51.819Z,42.46
2018-03-20T12:22:51.807Z,42.08
2018-03-20T12:23:51.760Z,42.43
2018-03-20T12:24:51.725Z,42.83
2018-03-20T12:25:51.698Z,42.55
2018-03-20T12:26:51.663Z,41.60
2018-03-20T12:27:51.644Z,41.69
2018-03-20T12:28:51.620Z,40.84
2018-03-20T12:29:51.588Z,40.75
2018-03-20T12:30:51.583Z,40.94
2018-03-20T12:31:51.530Z,40.84
2018-03-20T12:32:51.514Z,41.22
2018-03-20T12:33:51.471Z,41.22
2018-03-20T12:34:51.436Z,41.03
2018-03-20T12:35:51.438Z,41.69
2018-03-20T12:36:51.410Z,41.60
2018-03-20T12:37:51.351Z,40.84
2018-03-20T12:38:51.318Z,41.41
2018-03-20T12:39:51.304Z,41.31
2018-03-20T12:40:51.261Z,41.98
2018-03-20T12:41:51.236Z,42.36
2018-03-20T12:42:51.208Z,42.65
2018-03-20T12:43:51.175Z,43.50
2018-03-20T12:44:51.146Z,44.54
2018-03-20T12:45:51.118Z,44.73
2018-03-20T12:46:51.082Z,45.50
2018-03-20T12:47:51.073Z,45.31
2018-03-20T12:48:51.040Z,45.40
2018-03-20T12:49:50.998Z,45.40
2018-03-20T12:50:50.963Z,45.31
2018-03-20T12:51:50.945Z,44.26